Baxter, Arkansas
Current Conditions -  °F | °C
As of 1:53 PM on Sunday 23 Nov 2014 (Local Time) from KLLQ Reporting Station
Overcast Overcast  
Wind Chill: 17°   Ceiling: 800
Heat Index: 17°   Visibility: 10mi
Dew Point: 16°   Wind: 8mph
Humidity: 93%   Direction: 240°WSW
Pressure: 29.42"   Gusts: NA
Location:  33.4898°N, 91.4556°W
Report Text: KLLQ 231953Z AUTO 24007KT 10SM FEW005 BKN008 OVC013 17/16 A2942 RMK AO2 RAE38 CIG 007V011 SLP959 P0001 T01670156
Loading
Personal Weather Stations






























Interactive Weather Map New forecast layout! Learn more

10-Day Weather Forecast

Advertisements
Track Severe Weather on mobile